createdAt,value
2019-03-05T00:00:00.398Z,70.05
2019-03-05T00:02:33.293Z,70.12
2019-03-05T00:05:06.759Z,70.12
2019-03-05T00:07:35.360Z,69.64
2019-03-05T00:10:07.781Z,70.72
2019-03-05T00:12:36.700Z,70.72
2019-03-05T00:15:13.612Z,69.50
2019-03-05T00:17:42.181Z,69.50
2019-03-05T00:20:14.730Z,69.31
2019-03-05T00:22:43.340Z,68.99
2019-03-05T00:25:22.705Z,69.47
2019-03-05T00:27:57.253Z,68.92
2019-03-05T00:30:46.248Z,69.75
2019-03-05T00:33:20.795Z,70.55
2019-03-05T00:36:15.892Z,71.39
2019-03-05T00:38:56.400Z,71.59
2019-03-05T00:41:44.820Z,71.59
2019-03-05T00:44:28.439Z,72.07
2019-03-05T00:47:16.622Z,71.63
2019-03-05T00:49:57.249Z,72.96
2019-03-05T00:52:47.062Z,72.96
2019-03-05T00:55:41.487Z,72.85
2019-03-05T00:58:18.803Z,73.18
2019-03-05T01:01:10.060Z,73.71
2019-03-05T01:04:19.117Z,73.71
2019-03-05T01:06:48.376Z,73.61
2019-03-05T01:09:21.553Z,73.01
2019-03-05T01:11:53.411Z,73.01
2019-03-05T01:14:25.781Z,73.42
2019-03-05T01:16:57.344Z,73.58
2019-03-05T01:19:28.720Z,73.58
2019-03-05T01:21:57.305Z,74.25
2019-03-05T01:24:28.888Z,74.82
2019-03-05T01:27:00.572Z,74.53
2019-03-05T01:29:32.742Z,73.86
2019-03-05T01:32:05.715Z,75.29
2019-03-05T01:34:38.907Z,74.62
2019-03-05T01:37:09.119Z,75.29
2019-03-05T01:39:42.635Z,75.29
2019-03-05T01:42:14.422Z,75.92
2019-03-05T01:44:46.104Z,76.29
2019-03-05T01:47:17.440Z,76.57
2019-03-05T01:49:46.095Z,75.80
2019-03-05T01:52:17.365Z,77.08
2019-03-05T01:54:48.944Z,76.30
2019-03-05T01:57:17.502Z,76.56
2019-03-05T01:59:46.428Z,76.56
2019-03-05T02:02:17.963Z,76.77
2019-03-05T02:04:49.348Z,77.29
2019-03-05T02:07:18.569Z,77.29
2019-03-05T02:09:47.146Z,77.07
2019-03-05T02:12:18.458Z,77.58
2019-03-05T02:14:47.031Z,77.31
2019-03-05T02:17:18.338Z,77.31
2019-03-05T02:19:47.248Z,76.62
2019-03-05T02:22:28.075Z,78.01
2019-03-05T02:25:05.704Z,77.74
2019-03-05T02:27:46.517Z,77.07
2019-03-05T02:30:33.378Z,77.08
2019-03-05T02:33:57.169Z,77.99
2019-03-05T02:37:05.941Z,77.66
2019-03-05T02:39:49.653Z,77.66
2019-03-05T02:42:39.419Z,77.48
2019-03-05T02:45:25.799Z,77.70
2019-03-05T02:48:03.683Z,77.70
2019-03-05T02:50:51.869Z,77.81
2019-03-05T02:53:23.491Z,78.29
2019-03-05T02:56:28.237Z,78.19
2019-03-05T02:58:55.913Z,77.95
2019-03-05T03:01:26.794Z,77.54
2019-03-05T03:04:00.154Z,78.23
2019-03-05T03:06:30.161Z,78.23
2019-03-05T03:09:26.090Z,77.96
2019-03-05T03:11:57.401Z,77.88
2019-03-05T03:14:28.664Z,77.69
2019-03-05T03:16:59.958Z,77.69
2019-03-05T03:19:28.529Z,78.66
2019-03-05T03:21:57.075Z,77.28
2019-03-05T03:24:28.514Z,77.43
2019-03-05T03:26:59.835Z,77.23
2019-03-05T03:29:31.095Z,77.23
2019-03-05T03:32:02.364Z,76.94
2019-03-05T03:34:33.691Z,76.38
2019-03-05T03:37:02.239Z,76.38
2019-03-05T03:39:33.810Z,76.98
2019-03-05T03:42:05.319Z,76.98
2019-03-05T03:44:39.385Z,76.51
2019-03-05T03:47:10.817Z,75.57
2019-03-05T03:49:42.309Z,75.62
2019-03-05T03:52:13.612Z,75.93
2019-03-05T03:54:45.039Z,75.36
2019-03-05T03:57:13.798Z,74.92
2019-03-05T03:59:45.453Z,74.91
2019-03-05T04:02:16.926Z,76.34
2019-03-05T04:04:45.639Z,76.34
2019-03-05T04:07:15.020Z,76.65
2019-03-05T04:09:46.340Z,76.65
2019-03-05T04:12:17.817Z,75.69
2019-03-05T04:14:49.129Z,75.41
2019-03-05T04:17:20.771Z,75.60
2019-03-05T04:19:52.358Z,75.60
2019-03-05T04:22:23.929Z,75.78
2019-03-05T04:24:52.497Z,75.78
2019-03-05T04:27:23.789Z,75.81
2019-03-05T04:29:52.358Z,75.73
2019-03-05T04:32:24.079Z,75.66
2019-03-05T04:34:55.545Z,75.99
2019-03-05T04:37:26.955Z,76.35
2019-03-05T04:39:58.533Z,76.11
2019-03-05T04:42:29.906Z,76.27
2019-03-05T04:45:03.122Z,77.16
2019-03-05T04:47:31.732Z,77.16
2019-03-05T04:50:01.983Z,76.89
2019-03-05T04:52:30.589Z,76.89
2019-03-05T04:55:01.966Z,76.82
2019-03-05T04:57:33.898Z,76.82
2019-03-05T05:00:08.806Z,77.91
2019-03-05T05:02:40.247Z,77.61
2019-03-05T05:05:12.571Z,78.83
2019-03-05T05:07:41.264Z,78.68
2019-03-05T05:10:12.682Z,78.68
2019-03-05T05:12:44.456Z,78.92
2019-03-05T05:15:34.157Z,79.07
2019-03-05T05:18:03.078Z,79.07
2019-03-05T05:20:31.801Z,79.72
2019-03-05T05:23:00.416Z,79.89
2019-03-05T05:25:31.905Z,80.05
2019-03-05T05:28:03.199Z,80.06
2019-03-05T05:30:55.406Z,81.08
2019-03-05T05:33:24.075Z,81.07
2019-03-05T05:35:55.574Z,81.63
2019-03-05T05:38:24.457Z,81.85
2019-03-05T05:40:55.986Z,81.27
2019-03-05T05:43:29.597Z,81.27
2019-03-05T05:46:01.156Z,82.02
2019-03-05T05:50:53.647Z,82.34
2019-03-05T05:53:22.194Z,82.16
2019-03-05T05:55:50.824Z,82.16
2019-03-05T05:58:19.380Z,83.05
2019-03-05T06:00:52.492Z,83.05
2019-03-05T06:03:21.107Z,82.92
2019-03-05T06:05:49.739Z,82.95
2019-03-05T06:08:21.239Z,82.79
2019-03-05T06:10:53.344Z,83.25
2019-03-05T06:13:24.789Z,83.25
2019-03-05T06:15:56.137Z,83.44
2019-03-05T06:18:27.408Z,83.85
2019-03-05T06:20:58.996Z,83.85
2019-03-05T06:23:27.610Z,84.00
2019-03-05T06:25:58.911Z,84.00
2019-03-05T06:28:30.604Z,84.37
2019-03-05T06:31:01.865Z,84.26
2019-03-05T06:33:30.498Z,83.83
2019-03-05T06:36:02.019Z,84.12
2019-03-05T06:38:33.512Z,84.57
2019-03-05T06:41:02.786Z,84.21
2019-03-05T06:43:34.040Z,83.81
2019-03-05T06:46:05.598Z,83.87
2019-03-05T06:48:38.820Z,83.28
2019-03-05T06:51:09.031Z,82.85
2019-03-05T06:53:37.638Z,82.85
2019-03-05T06:56:09.292Z,82.16
2019-03-05T06:58:40.613Z,82.16
2019-03-05T07:01:15.161Z,81.53
2019-03-05T07:03:43.729Z,81.39
2019-03-05T07:06:49.978Z,81.39
2019-03-05T07:09:33.703Z,81.61
2019-03-05T07:12:08.233Z,81.35
2019-03-05T07:15:02.210Z,81.01
2019-03-05T07:17:56.606Z,79.96
2019-03-05T07:20:53.908Z,79.96
2019-03-05T07:23:31.405Z,79.20
2019-03-05T07:26:03.050Z,79.16
2019-03-05T07:28:34.363Z,77.88
2019-03-05T07:31:05.724Z,77.88
2019-03-05T07:33:37.393Z,77.23
2019-03-05T07:36:10.488Z,76.69
2019-03-05T07:38:42.222Z,76.14
2019-03-05T07:41:13.868Z,75.74
2019-03-05T07:43:45.458Z,74.17
2019-03-05T07:46:16.691Z,74.17
2019-03-05T07:48:45.256Z,75.92
2019-03-05T07:51:16.892Z,73.93
2019-03-05T07:53:48.407Z,73.78
2019-03-05T07:56:16.954Z,73.78
2019-03-05T07:58:48.272Z,73.49
2019-03-05T08:01:22.543Z,73.19
2019-03-05T08:03:53.219Z,73.19
2019-03-05T08:06:24.812Z,73.52
2019-03-05T08:09:31.013Z,73.22
2019-03-05T08:12:23.382Z,71.51
2019-03-05T08:15:09.607Z,71.29
2019-03-05T08:17:41.088Z,70.47
2019-03-05T08:20:12.775Z,70.40
2019-03-05T08:22:44.042Z,71.62
2019-03-05T08:25:15.370Z,70.77
2019-03-05T08:27:47.247Z,70.63
2019-03-05T08:30:18.786Z,70.61
2019-03-05T08:32:50.415Z,70.91
2019-03-05T08:35:21.854Z,69.87
2019-03-05T08:37:53.428Z,69.46
2019-03-05T08:40:24.904Z,70.03
2019-03-05T08:42:56.892Z,70.12
2019-03-05T08:45:29.763Z,69.07
2019-03-05T08:48:01.125Z,70.02
2019-03-05T08:50:32.406Z,69.13
2019-03-05T08:53:00.954Z,70.31
2019-03-05T08:55:32.884Z,69.00
2019-03-05T08:58:04.628Z,68.43
2019-03-05T09:00:38.056Z,68.35
2019-03-05T09:03:09.634Z,68.53
2019-03-05T09:05:40.930Z,68.39
2019-03-05T09:08:33.830Z,68.01
2019-03-05T09:11:05.184Z,68.71
2019-03-05T09:13:33.988Z,68.51
2019-03-05T09:16:07.835Z,68.46
2019-03-05T09:18:38.875Z,68.28
2019-03-05T09:21:10.417Z,66.50
2019-03-05T09:23:40.981Z,66.30
2019-03-05T09:26:12.287Z,66.97
2019-03-05T09:28:44.035Z,66.25
2019-03-05T09:31:15.265Z,65.80
2019-03-05T09:33:43.820Z,66.11
2019-03-05T09:36:12.639Z,65.08
2019-03-05T09:38:43.865Z,65.28
2019-03-05T09:41:12.427Z,64.02
2019-03-05T09:43:43.705Z,65.23
2019-03-05T09:46:12.298Z,64.76
2019-03-05T09:48:43.679Z,64.99
2019-03-05T09:51:12.300Z,65.07
2019-03-05T09:53:40.864Z,63.35
2019-03-05T09:56:09.525Z,62.50
2019-03-05T09:58:41.027Z,61.89
2019-03-05T10:01:09.644Z,61.48
2019-03-05T10:03:39.712Z,61.57
2019-03-05T10:06:09.943Z,61.54
2019-03-05T10:08:39.297Z,61.42
2019-03-05T10:11:11.043Z,61.57
2019-03-05T10:13:40.074Z,62.29
2019-03-05T10:16:11.917Z,61.60
2019-03-05T10:18:43.485Z,61.54
2019-03-05T10:21:16.264Z,60.86
2019-03-05T10:23:48.517Z,62.18
2019-03-05T10:26:18.585Z,60.91
2019-03-05T10:28:50.414Z,61.28
2019-03-05T10:31:22.003Z,61.61
2019-03-05T10:33:50.622Z,60.29
2019-03-05T10:36:22.214Z,61.37
2019-03-05T10:38:57.342Z,60.33
2019-03-05T10:41:24.257Z,60.42
2019-03-05T10:43:55.525Z,60.58
2019-03-05T10:46:27.422Z,61.21
2019-03-05T10:48:55.978Z,60.46
2019-03-05T10:51:27.817Z,59.53
2019-03-05T10:53:56.544Z,60.57
2019-03-05T10:56:25.472Z,61.03
2019-03-05T10:58:56.744Z,59.67
2019-03-05T11:01:28.543Z,59.48
2019-03-05T11:03:57.367Z,60.47
2019-03-05T11:06:26.080Z,59.03
2019-03-05T11:08:54.726Z,58.65
2019-03-05T11:11:26.283Z,58.01
2019-03-05T11:13:57.961Z,56.86
2019-03-05T11:16:31.024Z,56.23
2019-03-05T11:19:02.831Z,56.75
2019-03-05T11:21:31.483Z,56.24
2019-03-05T11:24:03.069Z,56.71
2019-03-05T11:26:34.339Z,57.75
2019-03-05T11:29:07.079Z,57.78
2019-03-05T11:31:38.744Z,57.46
2019-03-05T11:34:10.119Z,56.90
2019-03-05T11:36:38.727Z,58.50
2019-03-05T11:39:10.410Z,57.22
2019-03-05T11:41:40.349Z,58.17
2019-03-05T11:44:10.604Z,59.29
2019-03-05T11:46:41.881Z,59.53
2019-03-05T11:49:13.368Z,61.09
2019-03-05T11:51:44.937Z,65.77
2019-03-05T11:54:16.313Z,63.73
2019-03-05T11:56:44.922Z,63.12
2019-03-05T11:59:16.294Z,63.41
2019-03-05T12:01:47.773Z,61.74
2019-03-05T12:04:21.604Z,61.39
2019-03-05T12:06:52.198Z,62.43
2019-03-05T12:09:21.501Z,60.96
2019-03-05T12:11:52.766Z,60.78
2019-03-05T12:14:24.551Z,61.04
2019-03-05T12:16:53.483Z,61.83
2019-03-05T12:19:25.011Z,61.58
2019-03-05T12:21:56.951Z,61.64
2019-03-05T12:24:28.732Z,60.95
2019-03-05T12:27:00.474Z,60.13
2019-03-05T12:29:31.894Z,62.13
2019-03-05T12:32:00.502Z,64.50
2019-03-05T12:34:32.103Z,66.09
2019-03-05T12:37:03.472Z,66.30
2019-03-05T12:39:34.781Z,66.40
2019-03-05T12:42:08.076Z,66.22
2019-03-05T12:44:42.042Z,63.06
2019-03-05T12:47:10.861Z,63.74
2019-03-05T12:49:42.555Z,62.39
2019-03-05T12:52:11.463Z,61.57
2019-03-05T12:54:43.235Z,62.55
2019-03-05T12:57:14.512Z,64.00
2019-03-05T12:59:46.093Z,64.61
2019-03-05T13:02:17.483Z,66.74
2019-03-05T13:04:48.852Z,64.80
2019-03-05T13:07:20.430Z,62.32
2019-03-05T13:09:52.647Z,61.54
2019-03-05T13:12:19.508Z,62.27
2019-03-05T13:14:50.867Z,61.39
2019-03-05T13:17:19.474Z,60.40
2019-03-05T13:19:53.489Z,60.51
2019-03-05T13:22:24.823Z,59.43
2019-03-05T13:24:57.335Z,59.30
2019-03-05T13:27:27.986Z,59.47
2019-03-05T13:29:59.521Z,58.84
2019-03-05T13:32:31.353Z,59.87
2019-03-05T13:35:02.780Z,59.55
2019-03-05T13:37:34.242Z,59.03
2019-03-05T13:40:11.988Z,59.95
2019-03-05T13:42:40.707Z,60.08
2019-03-05T13:45:12.794Z,59.91
2019-03-05T13:47:44.419Z,59.29
2019-03-05T13:50:30.985Z,59.53
2019-03-05T13:53:14.885Z,59.29
2019-03-05T13:55:50.490Z,60.43
2019-03-05T13:58:24.832Z,59.98
2019-03-05T14:00:56.413Z,58.89
2019-03-05T14:03:31.068Z,58.68
2019-03-05T14:06:37.256Z,57.90
2019-03-05T14:09:14.715Z,57.85
2019-03-05T14:11:48.186Z,58.50
2019-03-05T14:14:24.034Z,58.94
2019-03-05T14:16:57.858Z,59.50
2019-03-05T14:19:29.164Z,59.39
2019-03-05T14:21:57.724Z,60.86
2019-03-05T14:24:29.057Z,61.30
2019-03-05T14:27:00.695Z,61.44
2019-03-05T14:29:31.939Z,61.51
2019-03-05T14:32:03.261Z,62.04
2019-03-05T14:34:31.856Z,63.31
2019-03-05T14:37:00.457Z,65.80
2019-03-05T14:39:52.487Z,67.28
2019-03-05T14:42:24.136Z,69.25
2019-03-05T14:44:55.680Z,68.99
2019-03-05T14:47:27.575Z,67.45
2019-03-05T14:49:56.210Z,66.00
2019-03-05T14:52:27.755Z,66.57
2019-03-05T14:54:59.364Z,65.59
2019-03-05T14:57:30.623Z,64.33
2019-03-05T15:00:02.015Z,63.69
2019-03-05T15:02:33.695Z,62.81
2019-03-05T15:05:07.252Z,62.18
2019-03-05T15:07:35.783Z,61.96
2019-03-05T15:10:09.713Z,61.89
2019-03-05T15:12:41.461Z,61.24
2019-03-05T15:15:18.984Z,60.79
2019-03-05T15:17:51.003Z,60.67
2019-03-05T15:20:22.262Z,60.97
2019-03-05T15:22:54.095Z,61.92
2019-03-05T15:25:25.485Z,60.73
2019-03-05T15:27:57.064Z,61.36
2019-03-05T15:30:29.305Z,62.12
2019-03-05T15:33:01.219Z,62.08
2019-03-05T15:35:32.805Z,62.99
2019-03-05T15:38:04.091Z,63.91
2019-03-05T15:40:35.833Z,64.86
2019-03-05T15:43:07.416Z,66.14
2019-03-05T15:46:02.588Z,67.06
2019-03-05T15:48:34.191Z,67.21
2019-03-05T15:51:05.528Z,67.74
2019-03-05T15:53:37.223Z,67.35
2019-03-05T15:56:10.760Z,68.65
2019-03-05T15:58:42.070Z,69.15
2019-03-05T16:01:21.915Z,69.56
2019-03-05T16:03:46.832Z,69.81
2019-03-05T16:06:18.209Z,70.94
2019-03-05T16:08:47.277Z,70.83
2019-03-05T16:11:19.676Z,70.86
2019-03-05T16:13:52.405Z,70.76
2019-03-05T16:16:21.373Z,70.91
2019-03-05T16:18:53.056Z,71.11
2019-03-05T16:21:24.532Z,70.99
2019-03-05T16:23:55.805Z,71.31
2019-03-05T16:26:28.209Z,71.81
2019-03-05T16:28:59.989Z,71.93
2019-03-05T16:31:50.106Z,71.68
2019-03-05T16:34:24.375Z,72.35
2019-03-05T16:37:12.134Z,72.43
2019-03-05T16:39:42.477Z,72.32
2019-03-05T16:42:33.803Z,72.41
2019-03-05T16:45:08.874Z,72.92
2019-03-05T16:47:51.227Z,72.74
2019-03-05T16:50:21.584Z,72.60
2019-03-05T16:53:04.429Z,72.40
2019-03-05T16:55:43.845Z,72.13
2019-03-05T16:58:35.180Z,72.32
2019-03-05T17:01:23.716Z,71.90
2019-03-05T17:04:08.409Z,74.58
2019-03-05T17:06:38.758Z,82.25
2019-03-05T17:09:15.048Z,88.60
2019-03-05T17:11:58.501Z,88.60
2019-03-05T17:14:27.340Z,91.73
2019-03-05T17:16:55.898Z,93.57
2019-03-05T17:19:27.542Z,94.05
2019-03-05T17:21:56.249Z,93.76
2019-03-05T17:24:28.082Z,94.31
2019-03-05T17:26:59.609Z,94.68
2019-03-05T17:29:31.399Z,95.38
2019-03-05T17:32:02.976Z,95.68
2019-03-05T17:34:34.295Z,95.27
2019-03-05T17:37:02.925Z,95.45
2019-03-05T17:39:34.504Z,96.09
2019-03-05T17:42:05.790Z,96.09
2019-03-05T17:44:38.669Z,96.13
2019-03-05T17:47:10.233Z,96.44
2019-03-05T17:49:38.959Z,96.44
2019-03-05T17:52:07.583Z,96.92
2019-03-05T17:54:39.467Z,96.92
2019-03-05T17:57:10.684Z,96.97
2019-03-05T17:59:42.119Z,96.70
2019-03-05T18:02:13.902Z,96.58
2019-03-05T18:04:43.134Z,96.51
2019-03-05T18:07:12.098Z,96.79
2019-03-05T18:09:43.126Z,96.79
2019-03-05T18:12:14.704Z,96.62
2019-03-05T18:14:46.491Z,96.77
2019-03-05T18:17:15.804Z,96.97
2019-03-05T18:19:47.313Z,97.25
2019-03-05T18:22:19.321Z,97.57
2019-03-05T18:24:47.886Z,97.57
2019-03-05T18:27:20.027Z,97.97
2019-03-05T18:29:51.374Z,97.97
2019-03-05T18:32:22.885Z,97.92
2019-03-05T18:34:54.521Z,98.08
2019-03-05T18:37:26.085Z,98.10
2019-03-05T18:39:54.666Z,98.10
2019-03-05T18:42:26.191Z,98.42
2019-03-05T18:44:58.022Z,98.52
2019-03-05T18:47:26.742Z,98.57
2019-03-05T18:49:55.351Z,98.50
2019-03-05T18:52:23.966Z,98.21
2019-03-05T18:54:55.579Z,97.46
2019-03-05T18:57:24.137Z,97.46
2019-03-05T18:59:52.684Z,97.00
2019-03-05T19:02:21.634Z,96.63
2019-03-05T19:04:50.223Z,96.60
2019-03-05T19:07:19.660Z,96.77
2019-03-05T19:09:48.941Z,96.92
2019-03-05T19:12:25.993Z,97.05
2019-03-05T19:14:54.718Z,96.79
2019-03-05T19:17:24.316Z,97.04
2019-03-05T19:19:52.928Z,97.04
2019-03-05T19:22:21.930Z,96.99
2019-03-05T19:24:53.684Z,97.00
2019-03-05T19:27:26.779Z,97.01
2019-03-05T19:29:55.475Z,96.43
2019-03-05T19:32:25.381Z,96.43
2019-03-05T19:34:56.961Z,96.54
2019-03-05T19:37:27.079Z,96.46
2019-03-05T19:39:58.653Z,96.78
2019-03-05T19:42:30.747Z,97.02
2019-03-05T19:44:59.721Z,97.14
2019-03-05T19:47:30.973Z,97.37
2019-03-05T19:49:59.587Z,97.37
2019-03-05T19:52:28.573Z,97.28
2019-03-05T19:54:57.122Z,97.20
2019-03-05T19:57:25.772Z,97.25
2019-03-05T19:59:57.572Z,97.19
2019-03-05T20:02:28.823Z,96.90
2019-03-05T20:05:00.370Z,96.96
2019-03-05T20:07:29.411Z,97.19
2019-03-05T20:09:58.712Z,97.50
2019-03-05T20:12:27.532Z,97.67
2019-03-05T20:14:59.591Z,97.65
2019-03-05T20:17:28.302Z,97.65
2019-03-05T20:19:56.847Z,97.55
2019-03-05T20:22:25.430Z,97.64
2019-03-05T20:24:54.212Z,97.80
2019-03-05T20:27:23.220Z,98.01
2019-03-05T20:29:54.480Z,98.12
2019-03-05T20:32:23.881Z,98.22
2019-03-05T20:34:53.901Z,98.33
2019-03-05T20:37:22.483Z,98.44
2019-03-05T20:39:51.384Z,98.58
2019-03-05T20:42:20.236Z,98.51
2019-03-05T20:44:51.837Z,98.31
2019-03-05T20:47:20.461Z,98.16
2019-03-05T20:49:49.392Z,98.02
2019-03-05T20:52:18.128Z,97.98
2019-03-05T20:54:46.971Z,97.99
2019-03-05T20:57:15.697Z,98.19
2019-03-05T20:59:44.342Z,98.33
2019-03-05T21:02:12.999Z,98.66
2019-03-05T21:04:41.932Z,98.66
2019-03-05T21:07:10.468Z,98.84
2019-03-05T21:09:39.565Z,98.91
2019-03-05T21:12:09.938Z,98.91
2019-03-05T21:14:41.306Z,98.98
2019-03-05T21:17:09.896Z,98.91
2019-03-05T21:19:41.150Z,98.81
2019-03-05T21:22:09.779Z,98.58
2019-03-05T21:24:40.181Z,98.43
2019-03-05T21:27:11.685Z,98.37
2019-03-05T21:29:41.135Z,98.25
2019-03-05T21:32:10.079Z,98.14
2019-03-05T21:34:39.060Z,98.07
2019-03-05T21:37:08.165Z,98.06
2019-03-05T21:39:37.180Z,98.06
2019-03-05T21:42:08.810Z,98.13
2019-03-05T21:44:37.556Z,98.08
2019-03-05T21:47:08.856Z,98.04
2019-03-05T21:49:40.441Z,98.00
2019-03-05T21:52:10.534Z,98.08
2019-03-05T21:54:45.175Z,98.16
2019-03-05T21:57:16.758Z,98.27
2019-03-05T21:59:45.714Z,98.21
2019-03-05T22:02:17.265Z,98.18
2019-03-05T22:04:48.754Z,98.19
2019-03-05T22:07:20.428Z,98.16
2019-03-05T22:09:49.667Z,98.20
2019-03-05T22:12:21.145Z,98.27
2019-03-05T22:14:52.512Z,98.31
2019-03-05T22:17:24.061Z,98.42
2019-03-05T22:19:52.638Z,98.49
2019-03-05T22:22:24.292Z,98.60
2019-03-05T22:24:52.925Z,98.57
2019-03-05T22:27:24.300Z,98.57
2019-03-05T22:29:56.083Z,98.63
2019-03-05T22:32:27.392Z,98.60
2019-03-05T22:34:55.967Z,98.52
2019-03-05T22:37:27.793Z,98.33
2019-03-05T22:39:56.549Z,98.25
2019-03-05T22:42:28.041Z,98.17
2019-03-05T22:44:59.394Z,98.04
2019-03-05T22:47:28.025Z,97.85
2019-03-05T22:49:59.606Z,97.76
2019-03-05T22:52:30.877Z,97.64
2019-03-05T22:55:02.191Z,96.90
2019-03-05T22:57:33.559Z,96.41
2019-03-05T23:00:02.163Z,96.00
2019-03-05T23:02:34.012Z,95.73
2019-03-05T23:05:08.698Z,95.53
2019-03-05T23:07:38.879Z,95.71
2019-03-05T23:10:13.116Z,95.49
2019-03-05T23:12:41.732Z,95.29
2019-03-05T23:15:14.902Z,95.53
2019-03-05T23:17:46.587Z,95.77
2019-03-05T23:20:18.462Z,95.76
2019-03-05T23:22:50.319Z,95.42
2019-03-05T23:25:22.018Z,94.91
2019-03-05T23:27:50.603Z,94.75
2019-03-05T23:30:23.205Z,94.97
2019-03-05T23:32:54.917Z,94.58
2019-03-05T23:35:26.408Z,93.95
2019-03-05T23:37:57.622Z,93.97
2019-03-05T23:40:28.983Z,93.92
2019-03-05T23:43:00.287Z,94.26
2019-03-05T23:45:29.403Z,94.05
2019-03-05T23:48:00.949Z,93.50
2019-03-05T23:50:32.289Z,93.65
2019-03-05T23:53:03.787Z,93.52
2019-03-05T23:55:35.628Z,93.02
2019-03-05T23:58:04.321Z,92.63
